Loreauville, Louisiana
Current Conditions -  °F | °C
As of 10:53 PM on Thursday 27 Nov 2014 (Local Time) from KARA Reporting Station
Clear Clear  
Wind Chill: 40°   Ceiling: Unl
Heat Index: 44°   Visibility: 10mi
Dew Point: 35°   Wind: 8mph
Humidity: 71%   Direction: 30°NNE
Pressure: 30.45"   Gusts: NA
Location:  30.06°N, 91.74°W
Report Text: KARA 280453Z AUTO 03007KT 10SM CLR 07/02 A3045 RMK AO2 SLP310 T00670017
Loading
Personal Weather Stations






























Interactive Weather Map New forecast layout! Learn more

10-Day Weather Forecast

Advertisements
Track Severe Weather on mobile